sensor_id;sensor_type;location;lat;lon;timestamp;P1;durP1;ratioP1;P2;durP2;ratioP2
20824;SDS011;10573;50.936;6.978;2023-03-12T00:01:22;9.83;;;4.20;;
20824;SDS011;10573;50.936;6.978;2023-03-12T00:03:49;9.50;;;4.68;;
20824;SDS011;10573;50.936;6.978;2023-03-12T00:06:16;12.85;;;5.07;;
20824;SDS011;10573;50.936;6.978;2023-03-12T00:08:43;13.35;;;5.80;;
20824;SDS011;10573;50.936;6.978;2023-03-12T00:11:10;14.05;;;5.35;;
20824;SDS011;10573;50.936;6.978;2023-03-12T00:13:38;28.30;;;10.48;;
20824;SDS011;10573;50.936;6.978;2023-03-12T00:16:05;15.10;;;5.47;;
20824;SDS011;10573;50.936;6.978;2023-03-12T00:18:32;15.82;;;5.80;;
20824;SDS011;10573;50.936;6.978;2023-03-12T00:20:58;11.68;;;5.47;;
20824;SDS011;10573;50.936;6.978;2023-03-12T00:23:24;15.05;;;6.78;;
20824;SDS011;10573;50.936;6.978;2023-03-12T00:25:50;12.82;;;6.15;;
20824;SDS011;10573;50.936;6.978;2023-03-12T00:28:15;11.40;;;5.45;;
20824;SDS011;10573;50.936;6.978;2023-03-12T00:30:40;16.27;;;6.37;;
20824;SDS011;10573;50.936;6.978;2023-03-12T00:33:07;12.73;;;6.13;;
20824;SDS011;10573;50.936;6.978;2023-03-12T00:35:33;9.85;;;4.85;;
20824;SDS011;10573;50.936;6.978;2023-03-12T00:37:59;12.70;;;5.50;;
20824;SDS011;10573;50.936;6.978;2023-03-12T00:40:24;10.85;;;5.28;;
20824;SDS011;10573;50.936;6.978;2023-03-12T00:42:49;20.00;;;7.30;;
20824;SDS011;10573;50.936;6.978;2023-03-12T00:45:15;19.00;;;7.50;;
20824;SDS011;10573;50.936;6.978;2023-03-12T00:47:40;13.87;;;6.77;;
20824;SDS011;10573;50.936;6.978;2023-03-12T00:50:06;14.55;;;6.30;;
20824;SDS011;10573;50.936;6.978;2023-03-12T00:52:32;13.13;;;5.72;;
20824;SDS011;10573;50.936;6.978;2023-03-12T00:54:57;12.37;;;5.70;;
20824;SDS011;10573;50.936;6.978;2023-03-12T00:57:23;17.30;;;6.10;;
20824;SDS011;10573;50.936;6.978;2023-03-12T00:59:49;10.70;;;4.90;;
20824;SDS011;10573;50.936;6.978;2023-03-12T01:02:14;15.83;;;6.70;;
20824;SDS011;10573;50.936;6.978;2023-03-12T01:04:40;9.13;;;4.35;;
20824;SDS011;10573;50.936;6.978;2023-03-12T01:07:05;10.73;;;3.60;;
20824;SDS011;10573;50.936;6.978;2023-03-12T01:09:31;6.97;;;3.40;;
20824;SDS011;10573;50.936;6.978;2023-03-12T01:11:56;8.47;;;3.83;;
20824;SDS011;10573;50.936;6.978;2023-03-12T01:14:21;6.10;;;3.60;;
20824;SDS011;10573;50.936;6.978;2023-03-12T01:16:48;7.00;;;3.47;;
20824;SDS011;10573;50.936;6.978;2023-03-12T01:19:13;7.32;;;3.38;;
20824;SDS011;10573;50.936;6.978;2023-03-12T01:21:39;7.65;;;3.60;;
20824;SDS011;10573;50.936;6.978;2023-03-12T01:24:04;5.43;;;3.57;;
20824;SDS011;10573;50.936;6.978;2023-03-12T01:26:30;13.52;;;5.85;;
20824;SDS011;10573;50.936;6.978;2023-03-12T01:28:55;8.40;;;3.67;;
20824;SDS011;10573;50.936;6.978;2023-03-12T01:31:21;9.37;;;5.00;;
20824;SDS011;10573;50.936;6.978;2023-03-12T01:33:47;9.00;;;3.57;;
20824;SDS011;10573;50.936;6.978;2023-03-12T01:36:23;8.80;;;3.40;;
20824;SDS011;10573;50.936;6.978;2023-03-12T01:38:51;7.03;;;3.30;;
20824;SDS011;10573;50.936;6.978;2023-03-12T01:41:21;7.53;;;3.50;;
20824;SDS011;10573;50.936;6.978;2023-03-12T01:43:47;6.15;;;3.20;;
20824;SDS011;10573;50.936;6.978;2023-03-12T01:54:18;5.38;;;2.97;;
20824;SDS011;10573;50.936;6.978;2023-03-12T01:56:50;6.88;;;3.22;;
20824;SDS011;10573;50.936;6.978;2023-03-12T01:59:26;6.60;;;3.00;;
20824;SDS011;10573;50.936;6.978;2023-03-12T02:01:54;6.27;;;3.13;;
20824;SDS011;10573;50.936;6.978;2023-03-12T02:04:21;12.25;;;3.72;;
20824;SDS011;10573;50.936;6.978;2023-03-12T02:06:51;4.95;;;3.30;;
20824;SDS011;10573;50.936;6.978;2023-03-12T02:09:21;8.07;;;3.38;;
20824;SDS011;10573;50.936;6.978;2023-03-12T02:11:47;6.57;;;3.33;;
20824;SDS011;10573;50.936;6.978;2023-03-12T02:14:13;5.40;;;3.08;;
20824;SDS011;10573;50.936;6.978;2023-03-12T02:16:39;9.80;;;3.35;;
20824;SDS011;10573;50.936;6.978;2023-03-12T02:19:05;8.80;;;3.33;;
20824;SDS011;10573;50.936;6.978;2023-03-12T02:21:40;6.57;;;3.28;;
20824;SDS011;10573;50.936;6.978;2023-03-12T02:24:08;6.00;;;3.00;;
20824;SDS011;10573;50.936;6.978;2023-03-12T02:26:43;7.93;;;2.97;;
20824;SDS011;10573;50.936;6.978;2023-03-12T02:29:09;5.65;;;3.05;;
20824;SDS011;10573;50.936;6.978;2023-03-12T02:31:40;6.05;;;2.72;;
20824;SDS011;10573;50.936;6.978;2023-03-12T02:34:09;8.00;;;3.20;;
20824;SDS011;10573;50.936;6.978;2023-03-12T02:36:34;8.17;;;3.13;;
20824;SDS011;10573;50.936;6.978;2023-03-12T02:39:00;6.87;;;2.87;;
20824;SDS011;10573;50.936;6.978;2023-03-12T02:41:28;5.37;;;2.90;;
20824;SDS011;10573;50.936;6.978;2023-03-12T02:44:01;7.55;;;3.15;;
20824;SDS011;10573;50.936;6.978;2023-03-12T02:47:03;6.35;;;3.05;;
20824;SDS011;10573;50.936;6.978;2023-03-12T02:49:30;7.05;;;2.58;;
20824;SDS011;10573;50.936;6.978;2023-03-12T02:51:57;7.55;;;3.10;;
20824;SDS011;10573;50.936;6.978;2023-03-12T02:54:23;4.72;;;2.85;;
20824;SDS011;10573;50.936;6.978;2023-03-12T02:56:49;4.95;;;2.70;;
20824;SDS011;10573;50.936;6.978;2023-03-12T02:59:15;4.70;;;2.65;;
20824;SDS011;10573;50.936;6.978;2023-03-12T03:01:41;6.03;;;2.60;;
20824;SDS011;10573;50.936;6.978;2023-03-12T03:04:07;5.70;;;2.63;;
20824;SDS011;10573;50.936;6.978;2023-03-12T03:06:34;6.77;;;2.90;;
20824;SDS011;10573;50.936;6.978;2023-03-12T03:09:02;6.63;;;2.80;;
20824;SDS011;10573;50.936;6.978;2023-03-12T03:11:27;5.90;;;2.78;;
20824;SDS011;10573;50.936;6.978;2023-03-12T03:13:53;6.50;;;3.07;;
20824;SDS011;10573;50.936;6.978;2023-03-12T03:16:19;5.50;;;2.60;;
20824;SDS011;10573;50.936;6.978;2023-03-12T03:18:46;6.25;;;2.60;;
20824;SDS011;10573;50.936;6.978;2023-03-12T03:21:12;7.57;;;2.60;;
20824;SDS011;10573;50.936;6.978;2023-03-12T03:23:44;5.63;;;2.65;;
20824;SDS011;10573;50.936;6.978;2023-03-12T03:26:11;7.50;;;2.90;;
20824;SDS011;10573;50.936;6.978;2023-03-12T03:28:37;3.47;;;2.30;;
20824;SDS011;10573;50.936;6.978;2023-03-12T03:31:02;5.53;;;2.63;;
20824;SDS011;10573;50.936;6.978;2023-03-12T03:33:29;7.65;;;2.50;;
20824;SDS011;10573;50.936;6.978;2023-03-12T03:35:57;7.10;;;2.42;;
20824;SDS011;10573;50.936;6.978;2023-03-12T03:38:23;6.60;;;2.53;;
20824;SDS011;10573;50.936;6.978;2023-03-12T03:40:50;3.83;;;2.40;;
20824;SDS011;10573;50.936;6.978;2023-03-12T03:43:17;5.65;;;2.30;;
20824;SDS011;10573;50.936;6.978;2023-03-12T03:45:42;5.43;;;2.55;;
20824;SDS011;10573;50.936;6.978;2023-03-12T03:48:11;7.20;;;2.50;;
20824;SDS011;10573;50.936;6.978;2023-03-12T03:50:37;6.85;;;2.30;;
20824;SDS011;10573;50.936;6.978;2023-03-12T03:53:04;5.82;;;2.25;;
20824;SDS011;10573;50.936;6.978;2023-03-12T03:55:30;8.00;;;2.40;;
20824;SDS011;10573;50.936;6.978;2023-03-12T03:57:56;4.70;;;2.30;;
20824;SDS011;10573;50.936;6.978;2023-03-12T04:00:21;4.03;;;1.90;;
20824;SDS011;10573;50.936;6.978;2023-03-12T04:02:47;3.20;;;2.03;;
20824;SDS011;10573;50.936;6.978;2023-03-12T04:05:12;8.90;;;2.30;;
20824;SDS011;10573;50.936;6.978;2023-03-12T04:07:40;5.88;;;2.40;;
20824;SDS011;10573;50.936;6.978;2023-03-12T04:10:06;7.20;;;2.40;;
20824;SDS011;10573;50.936;6.978;2023-03-12T04:12:31;4.90;;;2.10;;
20824;SDS011;10573;50.936;6.978;2023-03-12T04:14:57;6.20;;;1.90;;
20824;SDS011;10573;50.936;6.978;2023-03-12T04:17:22;4.85;;;2.10;;
20824;SDS011;10573;50.936;6.978;2023-03-12T04:19:48;5.43;;;2.25;;
20824;SDS011;10573;50.936;6.978;2023-03-12T04:22:13;4.83;;;2.07;;
20824;SDS011;10573;50.936;6.978;2023-03-12T04:24:39;6.80;;;2.53;;
20824;SDS011;10573;50.936;6.978;2023-03-12T04:27:04;6.10;;;2.10;;
20824;SDS011;10573;50.936;6.978;2023-03-12T04:29:30;4.30;;;2.35;;
20824;SDS011;10573;50.936;6.978;2023-03-12T04:31:55;3.07;;;1.87;;
20824;SDS011;10573;50.936;6.978;2023-03-12T04:34:20;5.60;;;1.90;;
20824;SDS011;10573;50.936;6.978;2023-03-12T04:36:46;7.67;;;2.30;;
20824;SDS011;10573;50.936;6.978;2023-03-12T04:39:12;4.80;;;2.00;;
20824;SDS011;10573;50.936;6.978;2023-03-12T04:41:40;4.45;;;2.00;;
20824;SDS011;10573;50.936;6.978;2023-03-12T04:44:05;4.70;;;2.22;;
20824;SDS011;10573;50.936;6.978;2023-03-12T04:46:31;4.05;;;1.95;;
20824;SDS011;10573;50.936;6.978;2023-03-12T04:48:56;5.80;;;2.20;;
20824;SDS011;10573;50.936;6.978;2023-03-12T04:51:22;8.87;;;2.20;;
20824;SDS011;10573;50.936;6.978;2023-03-12T04:53:48;5.85;;;2.38;;
20824;SDS011;10573;50.936;6.978;2023-03-12T04:56:14;9.17;;;2.43;;
20824;SDS011;10573;50.936;6.978;2023-03-12T04:58:39;5.77;;;2.47;;
20824;SDS011;10573;50.936;6.978;2023-03-12T05:01:05;4.22;;;2.10;;
20824;SDS011;10573;50.936;6.978;2023-03-12T05:03:30;3.65;;;1.88;;
20824;SDS011;10573;50.936;6.978;2023-03-12T05:05:56;6.00;;;2.22;;
20824;SDS011;10573;50.936;6.978;2023-03-12T05:08:22;6.13;;;2.90;;
20824;SDS011;10573;50.936;6.978;2023-03-12T05:10:47;8.77;;;2.67;;
20824;SDS011;10573;50.936;6.978;2023-03-12T05:13:17;7.82;;;2.28;;
20824;SDS011;10573;50.936;6.978;2023-03-12T05:15:45;6.55;;;2.22;;
20824;SDS011;10573;50.936;6.978;2023-03-12T05:18:11;8.25;;;2.20;;
20824;SDS011;10573;50.936;6.978;2023-03-12T05:20:37;6.85;;;2.38;;
20824;SDS011;10573;50.936;6.978;2023-03-12T05:23:02;6.97;;;2.53;;
20824;SDS011;10573;50.936;6.978;2023-03-12T05:25:28;5.63;;;2.80;;
20824;SDS011;10573;50.936;6.978;2023-03-12T05:27:53;4.53;;;1.90;;
20824;SDS011;10573;50.936;6.978;2023-03-12T05:30:20;5.40;;;2.15;;
20824;SDS011;10573;50.936;6.978;2023-03-12T05:32:45;4.30;;;2.43;;
20824;SDS011;10573;50.936;6.978;2023-03-12T05:35:11;6.90;;;2.60;;
20824;SDS011;10573;50.936;6.978;2023-03-12T05:37:36;7.70;;;2.13;;
20824;SDS011;10573;50.936;6.978;2023-03-12T05:40:02;6.13;;;2.40;;
20824;SDS011;10573;50.936;6.978;2023-03-12T05:42:28;6.00;;;2.38;;
20824;SDS011;10573;50.936;6.978;2023-03-12T05:44:53;8.70;;;2.50;;
20824;SDS011;10573;50.936;6.978;2023-03-12T05:47:19;3.57;;;2.20;;
20824;SDS011;10573;50.936;6.978;2023-03-12T05:49:44;7.50;;;2.60;;
20824;SDS011;10573;50.936;6.978;2023-03-12T05:52:10;4.68;;;2.13;;
20824;SDS011;10573;50.936;6.978;2023-03-12T05:54:35;5.47;;;2.35;;
20824;SDS011;10573;50.936;6.978;2023-03-12T05:57:01;7.68;;;2.10;;
20824;SDS011;10573;50.936;6.978;2023-03-12T05:59:27;5.55;;;2.42;;
20824;SDS011;10573;50.936;6.978;2023-03-12T06:01:53;7.00;;;2.30;;
20824;SDS011;10573;50.936;6.978;2023-03-12T06:04:19;5.00;;;2.22;;
20824;SDS011;10573;50.936;6.978;2023-03-12T06:06:45;5.60;;;2.65;;
20824;SDS011;10573;50.936;6.978;2023-03-12T06:09:10;5.47;;;2.30;;
20824;SDS011;10573;50.936;6.978;2023-03-12T06:11:35;7.97;;;2.33;;
20824;SDS011;10573;50.936;6.978;2023-03-12T06:14:01;8.73;;;2.33;;
20824;SDS011;10573;50.936;6.978;2023-03-12T06:16:27;5.13;;;2.38;;
20824;SDS011;10573;50.936;6.978;2023-03-12T06:18:57;5.85;;;2.60;;
20824;SDS011;10573;50.936;6.978;2023-03-12T06:21:25;5.53;;;2.20;;
20824;SDS011;10573;50.936;6.978;2023-03-12T06:23:53;5.85;;;2.17;;
20824;SDS011;10573;50.936;6.978;2023-03-12T06:26:19;6.80;;;2.45;;
20824;SDS011;10573;50.936;6.978;2023-03-12T06:28:46;4.15;;;2.40;;
20824;SDS011;10573;50.936;6.978;2023-03-12T06:31:13;5.63;;;2.28;;
20824;SDS011;10573;50.936;6.978;2023-03-12T06:33:39;7.57;;;2.37;;
20824;SDS011;10573;50.936;6.978;2023-03-12T06:36:05;5.50;;;2.10;;
20824;SDS011;10573;50.936;6.978;2023-03-12T06:38:32;8.48;;;2.35;;
20824;SDS011;10573;50.936;6.978;2023-03-12T06:41:01;5.55;;;2.22;;
20824;SDS011;10573;50.936;6.978;2023-03-12T06:43:30;7.13;;;2.50;;
20824;SDS011;10573;50.936;6.978;2023-03-12T06:45:57;7.47;;;2.40;;
20824;SDS011;10573;50.936;6.978;2023-03-12T06:48:24;4.07;;;2.22;;
20824;SDS011;10573;50.936;6.978;2023-03-12T06:50:51;6.23;;;2.60;;
20824;SDS011;10573;50.936;6.978;2023-03-12T06:53:18;7.82;;;2.63;;
20824;SDS011;10573;50.936;6.978;2023-03-12T06:55:44;6.80;;;2.33;;
20824;SDS011;10573;50.936;6.978;2023-03-12T06:58:10;7.07;;;2.93;;
20824;SDS011;10573;50.936;6.978;2023-03-12T07:00:36;6.72;;;2.50;;
20824;SDS011;10573;50.936;6.978;2023-03-12T07:03:01;7.72;;;2.75;;
20824;SDS011;10573;50.936;6.978;2023-03-12T07:05:27;5.95;;;2.55;;
20824;SDS011;10573;50.936;6.978;2023-03-12T07:07:53;6.47;;;2.83;;
20824;SDS011;10573;50.936;6.978;2023-03-12T07:10:19;4.93;;;2.60;;
20824;SDS011;10573;50.936;6.978;2023-03-12T07:12:44;5.50;;;2.47;;
20824;SDS011;10573;50.936;6.978;2023-03-12T07:15:10;9.03;;;2.40;;
20824;SDS011;10573;50.936;6.978;2023-03-12T07:17:36;4.25;;;2.47;;
20824;SDS011;10573;50.936;6.978;2023-03-12T07:20:02;4.30;;;2.33;;
20824;SDS011;10573;50.936;6.978;2023-03-12T07:22:28;5.18;;;2.25;;
20824;SDS011;10573;50.936;6.978;2023-03-12T07:24:54;5.87;;;2.37;;
20824;SDS011;10573;50.936;6.978;2023-03-12T07:27:19;4.82;;;2.33;;
20824;SDS011;10573;50.936;6.978;2023-03-12T07:29:45;5.47;;;2.25;;
20824;SDS011;10573;50.936;6.978;2023-03-12T07:32:10;7.60;;;2.43;;
20824;SDS011;10573;50.936;6.978;2023-03-12T07:34:36;5.57;;;2.60;;
20824;SDS011;10573;50.936;6.978;2023-03-12T07:37:01;6.27;;;2.10;;
20824;SDS011;10573;50.936;6.978;2023-03-12T07:39:27;5.80;;;2.20;;
20824;SDS011;10573;50.936;6.978;2023-03-12T07:41:53;5.80;;;2.50;;
20824;SDS011;10573;50.936;6.978;2023-03-12T07:44:18;4.53;;;2.50;;
20824;SDS011;10573;50.936;6.978;2023-03-12T07:46:44;5.93;;;2.03;;
20824;SDS011;10573;50.936;6.978;2023-03-12T07:49:15;6.13;;;2.38;;
20824;SDS011;10573;50.936;6.978;2023-03-12T07:51:44;5.55;;;2.30;;
20824;SDS011;10573;50.936;6.978;2023-03-12T07:54:12;5.07;;;2.28;;
20824;SDS011;10573;50.936;6.978;2023-03-12T07:56:40;5.30;;;2.40;;
20824;SDS011;10573;50.936;6.978;2023-03-12T07:59:26;7.18;;;2.40;;
20824;SDS011;10573;50.936;6.978;2023-03-12T08:01:52;4.40;;;2.10;;
20824;SDS011;10573;50.936;6.978;2023-03-12T08:04:18;6.88;;;2.40;;
20824;SDS011;10573;50.936;6.978;2023-03-12T08:06:44;3.78;;;2.00;;
20824;SDS011;10573;50.936;6.978;2023-03-12T08:09:09;6.35;;;2.40;;
20824;SDS011;10573;50.936;6.978;2023-03-12T08:11:35;6.13;;;2.50;;
20824;SDS011;10573;50.936;6.978;2023-03-12T08:14:02;4.10;;;2.10;;
20824;SDS011;10573;50.936;6.978;2023-03-12T08:16:31;5.55;;;2.35;;
20824;SDS011;10573;50.936;6.978;2023-03-12T08:18:57;6.65;;;2.70;;
20824;SDS011;10573;50.936;6.978;2023-03-12T08:21:26;4.47;;;2.42;;
20824;SDS011;10573;50.936;6.978;2023-03-12T08:23:52;6.10;;;2.50;;
20824;SDS011;10573;50.936;6.978;2023-03-12T08:26:17;9.83;;;2.67;;
20824;SDS011;10573;50.936;6.978;2023-03-12T08:28:42;6.03;;;2.23;;
20824;SDS011;10573;50.936;6.978;2023-03-12T08:31:08;7.40;;;2.58;;
20824;SDS011;10573;50.936;6.978;2023-03-12T08:33:34;4.93;;;2.53;;
20824;SDS011;10573;50.936;6.978;2023-03-12T08:36:01;5.95;;;2.63;;
20824;SDS011;10573;50.936;6.978;2023-03-12T08:38:26;7.13;;;2.63;;
20824;SDS011;10573;50.936;6.978;2023-03-12T08:40:56;5.17;;;2.80;;
20824;SDS011;10573;50.936;6.978;2023-03-12T08:43:22;7.33;;;2.70;;
20824;SDS011;10573;50.936;6.978;2023-03-12T08:45:52;5.40;;;2.65;;
20824;SDS011;10573;50.936;6.978;2023-03-12T08:48:22;6.50;;;3.10;;
20824;SDS011;10573;50.936;6.978;2023-03-12T08:50:47;6.88;;;3.05;;
20824;SDS011;10573;50.936;6.978;2023-03-12T08:53:13;8.23;;;3.08;;
20824;SDS011;10573;50.936;6.978;2023-03-12T08:55:38;11.30;;;3.42;;
20824;SDS011;10573;50.936;6.978;2023-03-12T08:58:06;5.88;;;3.20;;
20824;SDS011;10573;50.936;6.978;2023-03-12T09:00:32;8.07;;;3.50;;
20824;SDS011;10573;50.936;6.978;2023-03-12T09:02:57;7.18;;;3.30;;
20824;SDS011;10573;50.936;6.978;2023-03-12T09:05:23;6.70;;;3.30;;
20824;SDS011;10573;50.936;6.978;2023-03-12T09:07:49;6.00;;;3.40;;
20824;SDS011;10573;50.936;6.978;2023-03-12T09:10:15;8.07;;;3.43;;
20824;SDS011;10573;50.936;6.978;2023-03-12T09:12:40;7.32;;;3.38;;
20824;SDS011;10573;50.936;6.978;2023-03-12T09:15:07;8.27;;;3.33;;
20824;SDS011;10573;50.936;6.978;2023-03-12T09:17:33;6.50;;;3.83;;
20824;SDS011;10573;50.936;6.978;2023-03-12T09:19:58;7.93;;;3.70;;
20824;SDS011;10573;50.936;6.978;2023-03-12T09:22:24;8.90;;;3.75;;
20824;SDS011;10573;50.936;6.978;2023-03-12T09:24:50;8.15;;;4.03;;
20824;SDS011;10573;50.936;6.978;2023-03-12T09:27:15;5.10;;;3.70;;
20824;SDS011;10573;50.936;6.978;2023-03-12T09:29:41;5.60;;;3.43;;
20824;SDS011;10573;50.936;6.978;2023-03-12T09:32:06;6.00;;;3.97;;
20824;SDS011;10573;50.936;6.978;2023-03-12T09:34:33;5.68;;;4.10;;
20824;SDS011;10573;50.936;6.978;2023-03-12T09:36:59;10.25;;;4.32;;
20824;SDS011;10573;50.936;6.978;2023-03-12T09:39:24;9.10;;;4.10;;
20824;SDS011;10573;50.936;6.978;2023-03-12T09:41:50;7.45;;;3.83;;
20824;SDS011;10573;50.936;6.978;2023-03-12T09:46:55;6.35;;;4.10;;
20824;SDS011;10573;50.936;6.978;2023-03-12T09:55:13;6.20;;;4.30;;
20824;SDS011;10573;50.936;6.978;2023-03-12T09:57:41;7.78;;;4.68;;
20824;SDS011;10573;50.936;6.978;2023-03-12T10:00:11;6.05;;;4.45;;
20824;SDS011;10573;50.936;6.978;2023-03-12T10:05:23;6.80;;;4.70;;
20824;SDS011;10573;50.936;6.978;2023-03-12T10:10:38;7.53;;;4.73;;
20824;SDS011;10573;50.936;6.978;2023-03-12T10:13:33;6.63;;;4.65;;
20824;SDS011;10573;50.936;6.978;2023-03-12T10:18:39;8.55;;;5.05;;
20824;SDS011;10573;50.936;6.978;2023-03-12T10:21:24;7.63;;;5.07;;
20824;SDS011;10573;50.936;6.978;2023-03-12T10:26:49;6.70;;;4.80;;
20824;SDS011;10573;50.936;6.978;2023-03-12T10:29:26;8.02;;;5.32;;
20824;SDS011;10573;50.936;6.978;2023-03-12T10:31:56;7.90;;;4.95;;
20824;SDS011;10573;50.936;6.978;2023-03-12T10:34:31;7.00;;;5.13;;
20824;SDS011;10573;50.936;6.978;2023-03-12T10:37:04;6.15;;;4.88;;
20824;SDS011;10573;50.936;6.978;2023-03-12T10:39:39;8.32;;;5.05;;
20824;SDS011;10573;50.936;6.978;2023-03-12T10:42:11;7.83;;;5.13;;
20824;SDS011;10573;50.936;6.978;2023-03-12T10:44:40;8.93;;;5.53;;
20824;SDS011;10573;50.936;6.978;2023-03-12T10:47:07;6.73;;;5.00;;
20824;SDS011;10573;50.936;6.978;2023-03-12T10:49:47;7.77;;;5.23;;
20824;SDS011;10573;50.936;6.978;2023-03-12T10:52:22;7.38;;;5.00;;
20824;SDS011;10573;50.936;6.978;2023-03-12T10:54:48;12.23;;;5.88;;
20824;SDS011;10573;50.936;6.978;2023-03-12T10:57:15;11.32;;;5.93;;
20824;SDS011;10573;50.936;6.978;2023-03-12T10:59:43;11.43;;;5.97;;
20824;SDS011;10573;50.936;6.978;2023-03-12T11:04:51;8.13;;;5.20;;
20824;SDS011;10573;50.936;6.978;2023-03-12T11:07:18;8.32;;;5.03;;
20824;SDS011;10573;50.936;6.978;2023-03-12T11:10:03;7.93;;;5.68;;
20824;SDS011;10573;50.936;6.978;2023-03-12T11:12:29;10.70;;;5.45;;
20824;SDS011;10573;50.936;6.978;2023-03-12T11:14:55;8.30;;;5.15;;
20824;SDS011;10573;50.936;6.978;2023-03-12T11:17:22;10.27;;;5.85;;
20824;SDS011;10573;50.936;6.978;2023-03-12T11:19:52;10.60;;;5.95;;
20824;SDS011;10573;50.936;6.978;2023-03-12T11:22:28;9.40;;;5.55;;
20824;SDS011;10573;50.936;6.978;2023-03-12T11:25:18;6.25;;;5.32;;
20824;SDS011;10573;50.936;6.978;2023-03-12T11:27:48;8.18;;;5.53;;
20824;SDS011;10573;50.936;6.978;2023-03-12T11:30:18;8.05;;;5.38;;
20824;SDS011;10573;50.936;6.978;2023-03-12T11:32:48;8.07;;;5.07;;
20824;SDS011;10573;50.936;6.978;2023-03-12T11:35:17;8.30;;;5.07;;
20824;SDS011;10573;50.936;6.978;2023-03-12T11:43:27;12.05;;;6.05;;
20824;SDS011;10573;50.936;6.978;2023-03-12T11:52:13;8.88;;;5.55;;
20824;SDS011;10573;50.936;6.978;2023-03-12T11:55:09;12.80;;;6.37;;
20824;SDS011;10573;50.936;6.978;2023-03-12T12:08:58;11.40;;;5.60;;
20824;SDS011;10573;50.936;6.978;2023-03-12T12:11:39;11.35;;;6.00;;
20824;SDS011;10573;50.936;6.978;2023-03-12T12:14:25;10.60;;;5.88;;
20824;SDS011;10573;50.936;6.978;2023-03-12T12:17:48;13.93;;;6.35;;
20824;SDS011;10573;50.936;6.978;2023-03-12T12:20:20;18.52;;;5.35;;
20824;SDS011;10573;50.936;6.978;2023-03-12T12:23:00;15.55;;;5.18;;
20824;SDS011;10573;50.936;6.978;2023-03-12T12:31:36;9.80;;;3.50;;
20824;SDS011;10573;50.936;6.978;2023-03-12T12:34:22;14.65;;;4.28;;
20824;SDS011;10573;50.936;6.978;2023-03-12T12:37:31;12.48;;;4.05;;
20824;SDS011;10573;50.936;6.978;2023-03-12T12:40:04;12.43;;;3.87;;
20824;SDS011;10573;50.936;6.978;2023-03-12T12:42:46;13.05;;;4.10;;
20824;SDS011;10573;50.936;6.978;2023-03-12T12:45:30;15.07;;;4.40;;
20824;SDS011;10573;50.936;6.978;2023-03-12T12:50:23;14.40;;;3.63;;
20824;SDS011;10573;50.936;6.978;2023-03-12T12:52:53;13.40;;;3.72;;
20824;SDS011;10573;50.936;6.978;2023-03-12T12:55:32;13.43;;;3.37;;
20824;SDS011;10573;50.936;6.978;2023-03-12T12:58:09;14.52;;;4.68;;
20824;SDS011;10573;50.936;6.978;2023-03-12T13:00:48;14.88;;;3.40;;
20824;SDS011;10573;50.936;6.978;2023-03-12T13:03:20;15.45;;;3.38;;
20824;SDS011;10573;50.936;6.978;2023-03-12T13:11:21;13.38;;;3.90;;
20824;SDS011;10573;50.936;6.978;2023-03-12T13:13:50;15.68;;;3.45;;
20824;SDS011;10573;50.936;6.978;2023-03-12T13:16:45;14.95;;;3.70;;
20824;SDS011;10573;50.936;6.978;2023-03-12T13:21:38;14.60;;;3.13;;
20824;SDS011;10573;50.936;6.978;2023-03-12T13:31:52;15.85;;;3.38;;
20824;SDS011;10573;50.936;6.978;2023-03-12T13:36:45;16.42;;;2.95;;
20824;SDS011;10573;50.936;6.978;2023-03-12T13:41:45;14.50;;;3.25;;
20824;SDS011;10573;50.936;6.978;2023-03-12T13:46:59;14.05;;;3.22;;
20824;SDS011;10573;50.936;6.978;2023-03-12T13:50:11;18.33;;;3.50;;
20824;SDS011;10573;50.936;6.978;2023-03-12T13:52:27;18.02;;;3.22;;
20824;SDS011;10573;50.936;6.978;2023-03-12T13:58:14;14.15;;;3.50;;
20824;SDS011;10573;50.936;6.978;2023-03-12T14:03:34;14.63;;;2.88;;
20824;SDS011;10573;50.936;6.978;2023-03-12T14:16:32;16.48;;;3.20;;
20824;SDS011;10573;50.936;6.978;2023-03-12T14:19:02;18.33;;;3.22;;
20824;SDS011;10573;50.936;6.978;2023-03-12T14:21:31;16.73;;;3.22;;
20824;SDS011;10573;50.936;6.978;2023-03-12T14:23:59;12.82;;;3.25;;
20824;SDS011;10573;50.936;6.978;2023-03-12T14:26:32;14.32;;;3.08;;
20824;SDS011;10573;50.936;6.978;2023-03-12T14:29:03;16.57;;;3.33;;
20824;SDS011;10573;50.936;6.978;2023-03-12T14:31:33;13.35;;;2.95;;
20824;SDS011;10573;50.936;6.978;2023-03-12T14:37:02;15.23;;;3.38;;
20824;SDS011;10573;50.936;6.978;2023-03-12T14:42:23;15.18;;;3.20;;
20824;SDS011;10573;50.936;6.978;2023-03-12T14:44:57;15.23;;;3.50;;
20824;SDS011;10573;50.936;6.978;2023-03-12T14:47:27;16.27;;;3.55;;
20824;SDS011;10573;50.936;6.978;2023-03-12T14:49:54;11.93;;;2.88;;
20824;SDS011;10573;50.936;6.978;2023-03-12T14:52:22;11.77;;;2.75;;
20824;SDS011;10573;50.936;6.978;2023-03-12T14:57:23;17.17;;;2.78;;
20824;SDS011;10573;50.936;6.978;2023-03-12T14:59:56;16.57;;;3.43;;
20824;SDS011;10573;50.936;6.978;2023-03-12T15:02:23;18.10;;;3.55;;
20824;SDS011;10573;50.936;6.978;2023-03-12T15:04:50;20.35;;;3.67;;
20824;SDS011;10573;50.936;6.978;2023-03-12T15:07:20;15.65;;;3.10;;
20824;SDS011;10573;50.936;6.978;2023-03-12T15:09:51;12.52;;;2.72;;
20824;SDS011;10573;50.936;6.978;2023-03-12T15:12:23;14.25;;;2.97;;
20824;SDS011;10573;50.936;6.978;2023-03-12T15:14:54;12.55;;;2.75;;
20824;SDS011;10573;50.936;6.978;2023-03-12T15:17:25;14.67;;;3.30;;
20824;SDS011;10573;50.936;6.978;2023-03-12T15:19:54;16.13;;;3.67;;
20824;SDS011;10573;50.936;6.978;2023-03-12T15:22:21;19.55;;;3.70;;
20824;SDS011;10573;50.936;6.978;2023-03-12T15:24:48;12.13;;;3.00;;
20824;SDS011;10573;50.936;6.978;2023-03-12T15:29:47;16.98;;;3.00;;
20824;SDS011;10573;50.936;6.978;2023-03-12T15:32:14;18.10;;;2.92;;
20824;SDS011;10573;50.936;6.978;2023-03-12T15:34:41;16.80;;;3.50;;
20824;SDS011;10573;50.936;6.978;2023-03-12T15:40:02;15.70;;;3.47;;
20824;SDS011;10573;50.936;6.978;2023-03-12T15:42:35;14.23;;;3.17;;
20824;SDS011;10573;50.936;6.978;2023-03-12T15:45:04;13.55;;;3.03;;
20824;SDS011;10573;50.936;6.978;2023-03-12T15:47:40;16.85;;;3.30;;
20824;SDS011;10573;50.936;6.978;2023-03-12T15:50:29;23.00;;;4.17;;
20824;SDS011;10573;50.936;6.978;2023-03-12T15:53:02;16.17;;;3.50;;
20824;SDS011;10573;50.936;6.978;2023-03-12T15:55:31;19.58;;;3.50;;
20824;SDS011;10573;50.936;6.978;2023-03-12T15:57:57;21.63;;;4.23;;
20824;SDS011;10573;50.936;6.978;2023-03-12T16:00:43;19.33;;;3.90;;
20824;SDS011;10573;50.936;6.978;2023-03-12T16:03:16;20.25;;;3.85;;
20824;SDS011;10573;50.936;6.978;2023-03-12T16:05:43;19.50;;;3.75;;
20824;SDS011;10573;50.936;6.978;2023-03-12T16:08:11;18.98;;;3.60;;
20824;SDS011;10573;50.936;6.978;2023-03-12T16:10:38;22.55;;;3.78;;
20824;SDS011;10573;50.936;6.978;2023-03-12T16:13:03;16.40;;;3.53;;
20824;SDS011;10573;50.936;6.978;2023-03-12T16:15:35;22.85;;;3.83;;
20824;SDS011;10573;50.936;6.978;2023-03-12T16:18:02;23.03;;;5.13;;
20824;SDS011;10573;50.936;6.978;2023-03-12T16:20:28;18.83;;;3.40;;
20824;SDS011;10573;50.936;6.978;2023-03-12T16:22:53;19.67;;;3.63;;
20824;SDS011;10573;50.936;6.978;2023-03-12T16:25:19;20.10;;;4.50;;
20824;SDS011;10573;50.936;6.978;2023-03-12T16:27:46;19.60;;;3.90;;
20824;SDS011;10573;50.936;6.978;2023-03-12T16:30:19;16.38;;;3.33;;
20824;SDS011;10573;50.936;6.978;2023-03-12T16:32:48;17.83;;;3.60;;
20824;SDS011;10573;50.936;6.978;2023-03-12T16:35:14;20.05;;;3.90;;
20824;SDS011;10573;50.936;6.978;2023-03-12T16:37:42;23.60;;;3.95;;
20824;SDS011;10573;50.936;6.978;2023-03-12T16:40:07;20.67;;;3.60;;
20824;SDS011;10573;50.936;6.978;2023-03-12T16:42:34;23.27;;;3.97;;
20824;SDS011;10573;50.936;6.978;2023-03-12T16:45:00;21.77;;;4.15;;
20824;SDS011;10573;50.936;6.978;2023-03-12T16:47:26;23.05;;;5.30;;